Bladon Springs, Alabama
Current Conditions -  °F | °C
As of 3:58 PM on Thursday 20 Nov 2014 (Local Time) from KMEI Reporting Station
Broken Clouds Broken Clouds  
Wind Chill: 65°   Ceiling: 5500
Heat Index: 65°   Visibility: 10mi
Dew Point: 44°   Wind: 3mph
Humidity: 47%   Direction: 190°S
Pressure: 30.19"   Gusts: NA
Location:  31.7615°N, 88.3039°W
Report Text: KMEI 202158Z 19003KT 10SM BKN055 BKN075 18/07 A3019 RMK AO2 SLP222 T01830067
Loading
Personal Weather Stations






























Interactive Weather Map New forecast layout! Learn more

10-Day Weather Forecast

Advertisements
Track Severe Weather on mobile